Lady Mary — WCY4834 — position and weather

sailwx.info

Track history (hours):
 
Tides and Currents Weather Stations Pressure Air Temp Water Temp Dewpoint Dewpoint Depression Visibility Wind Speed Wind Dir Waves Ship Positions

Lady Mary

Owner: BLACKMAN, JOHN H, SEATTLE, WA. More information available from US FCC via Universal Licensing System and Coast Guard Vessel Documentation Center.

Last reported at 2014-Oct-20 22:23 UTC. Time now 2014-Oct-20 22:49 UTC.
Position N 47°40' W 122°13'.

Length 26 m.

Type: Passenger vessel. MMSI: 367013060.

Date/timePositionNaut miles runAvg speedWind from/ knotsBaromVisibWave heightAir tempDewpointWater temp
2014-Oct-20 22:23N 47°40' W 122°13'0 0.0
2014-Oct-20 21:30N 47°40' W 122°13'0 0.0
2014-Oct-20 20:31N 47°40' W 122°13'0 0.0
2014-Oct-20 19:31N 47°40' W 122°13'0 0.0
2014-Oct-20 18:38N 47°40' W 122°13'0 0.1
2014-Oct-20 18:32N 47°40' W 122°13'0 0.0
2014-Oct-20 17:30N 47°40' W 122°13'0 0.0
2014-Oct-20 16:33N 47°40' W 122°13'0 0.0
2014-Oct-20 15:31N 47°40' W 122°13'0 0.0
2014-Oct-20 14:26N 47°40' W 122°13'0 0.0
2014-Oct-20 13:32N 47°40' W 122°13'0 0.0
2014-Oct-20 12:33N 47°40' W 122°13'0 0.0
2014-Oct-20 11:31N 47°40' W 122°13'0 0.0
2014-Oct-20 10:31N 47°40' W 122°13'0 0.0
2014-Oct-20 09:32N 47°40' W 122°13'0 0.0
2014-Oct-20 08:30N 47°40' W 122°13'0 0.0
2014-Oct-20 07:33N 47°40' W 122°13'0 0.0
2014-Oct-20 07:04N 47°40' W 122°13'0 0.0
2014-Oct-20 06:31N 47°40' W 122°13'0 0.0
2014-Oct-20 05:29N 47°40' W 122°13'0 0.0
2014-Oct-20 04:32N 47°40' W 122°13'0 0.0
2014-Oct-20 03:27N 47°40' W 122°13'0 0.0
2014-Oct-20 02:31N 47°40' W 122°13'0 0.0
2014-Oct-20 01:31N 47°40' W 122°13'0 0.0
2014-Oct-20 00:32N 47°40' W 122°13'0 0.0
2014-Oct-19 23:33N 47°40' W 122°13'0 0.0
2014-Oct-19 22:33N 47°40' W 122°13'0 0.0
2014-Oct-19 21:31N 47°40' W 122°13'0 0.0
2014-Oct-19 20:23N 47°40' W 122°13'0 0.0
2014-Oct-19 19:32N 47°40' W 122°13'0 0.0
2014-Oct-19 18:33N 47°40' W 122°13'0 0.0
2014-Oct-19 17:31N 47°40' W 122°13'0 0.0
2014-Oct-19 16:31N 47°40' W 122°13'0 0.0
2014-Oct-19 15:32N 47°40' W 122°13'0 0.0
2014-Oct-19 14:50N 47°40' W 122°13'0 0.0
2014-Oct-19 14:30N 47°40' W 122°13'0 0.0
2014-Oct-19 13:51N 47°40' W 122°13'0 0.0
2014-Oct-19 13:33N 47°40' W 122°13'0 0.0
2014-Oct-19 13:16N 47°40' W 122°13'0 0.0
2014-Oct-19 12:31N 47°40' W 122°13'0 0.0
2014-Oct-19 11:32N 47°40' W 122°13'0 0.0
2014-Oct-19 11:11N 47°40' W 122°13'0 0.0
2014-Oct-19 10:29N 47°40' W 122°13'0 0.0
2014-Oct-19 10:05N 47°40' W 122°13'0 0.0
2014-Oct-19 09:33N 47°40' W 122°13'0 0.1
2014-Oct-19 09:30N 47°40' W 122°13'0 0.0
2014-Oct-19 08:31N 47°40' W 122°13'0 0.6
2014-Oct-19 07:55N 47°40' W 122°13'3 7.6
2014-Oct-19 07:32N 47°39' W 122°17'0 4.0
2014-Oct-19 07:31N 47°39' W 122°17'2 2.6
2014-Oct-19 06:33N 47°39' W 122°21'0 5.6
2014-Oct-19 06:30N 47°38' W 122°20'4 4.1
2014-Oct-19 05:35N 47°39' W 122°15'0 7.0
2014-Oct-19 05:33N 47°39' W 122°15'2 1.9
2014-Oct-19 04:33N 47°40' W 122°13'0 0.0
2014-Oct-19 04:05N 47°40' W 122°13'0 0.0
2014-Oct-19 03:33N 47°40' W 122°13'0 0.0
2014-Oct-19 02:31N 47°40' W 122°13'0 0.0
2014-Oct-19 02:25N 47°40' W 122°13'0 0.0
2014-Oct-19 01:31N 47°40' W 122°13'0 0.0
2014-Oct-19 00:32N 47°40' W 122°13'0 0.0
2014-Oct-18 23:30N 47°40' W 122°13'0 0.0
2014-Oct-18 23:09N 47°40' W 122°13'0 0.0
2014-Oct-18 22:33N 47°40' W 122°13'0 0.0
2014-Oct-18 21:31N 47°40' W 122°13'0 0.0
2014-Oct-18 20:32N 47°40' W 122°13'0 0.0
2014-Oct-18 19:32N 47°40' W 122°13'0 0.0
2014-Oct-18 18:33N 47°40' W 122°13'0 0.0
2014-Oct-18 18:18N 47°40' W 122°13'0 0.0
2014-Oct-18 17:31N 47°40' W 122°13'0 0.0
2014-Oct-18 17:13N 47°40' W 122°13'0 0.0
2014-Oct-18 16:28N 47°40' W 122°13'0 0.0
2014-Oct-18 15:32N 47°40' W 122°13'0 0.0
2014-Oct-18 14:33N 47°40' W 122°13'0 0.0
2014-Oct-18 13:33N 47°40' W 122°13'0 0.0
2014-Oct-18 12:31N 47°40' W 122°13'0 0.0
2014-Oct-18 11:32N 47°40' W 122°13'0 0.0
2014-Oct-18 10:32N 47°40' W 122°13'0 0.0
2014-Oct-18 09:33N 47°40' W 122°13'0 0.0
2014-Oct-18 08:31N 47°40' W 122°13'0 0.0
2014-Oct-18 07:29N 47°40' W 122°13'0 0.0
2014-Oct-18 06:29N 47°40' W 122°13'0 0.0
2014-Oct-18 05:30N 47°40' W 122°13'0 0.0
2014-Oct-18 04:57N 47°40' W 122°13'0 0.0
2014-Oct-18 04:28N 47°40' W 122°13'0 0.0
2014-Oct-18 03:28N 47°40' W 122°13'0 0.0
2014-Oct-18 02:32N 47°40' W 122°13'0 0.0
2014-Oct-18 01:33N 47°40' W 122°13'0 0.0
2014-Oct-18 00:33N 47°40' W 122°13'0 0.0
2014-Oct-17 23:25N 47°40' W 122°13'0 0.0
2014-Oct-17 22:32N 47°40' W 122°13'0 0.0
2014-Oct-17 21:32N 47°40' W 122°13'0 0.0
2014-Oct-17 20:33N 47°40' W 122°13'0 0.0
2014-Oct-17 19:28N 47°40' W 122°13'0 0.0
2014-Oct-17 18:28N 47°40' W 122°13'0 0.0
2014-Oct-17 17:29N 47°40' W 122°13'0 0.0
2014-Oct-17 16:33N 47°40' W 122°13'0 0.0
2014-Oct-17 15:30N 47°40' W 122°13'0 0.0
2014-Oct-17 14:31N 47°40' W 122°13'0 0.0
2014-Oct-17 13:32N 47°40' W 122°13'0 0.0
2014-Oct-17 13:26N 47°40' W 122°13'0 0.0
2014-Oct-17 12:32N 47°40' W 122°13'0 0.0
2014-Oct-17 11:33N 47°40' W 122°13'0 0.0
2014-Oct-17 10:31N 47°40' W 122°13'0 0.0
2014-Oct-17 09:31N 47°40' W 122°13'0 0.0
2014-Oct-17 08:29N 47°40' W 122°13'0 0.0
2014-Oct-17 07:33N 47°40' W 122°13'0 0.0
2014-Oct-17 06:33N 47°40' W 122°13'0 0.0
2014-Oct-17 05:28N 47°40' W 122°13'0 0.0
2014-Oct-17 04:29N 47°40' W 122°13'0 0.0
2014-Oct-17 03:32N 47°40' W 122°13'0 0.0
2014-Oct-17 03:08N 47°40' W 122°13'0 0.0
2014-Oct-17 02:30N 47°40' W 122°13'0 0.0
2014-Oct-17 01:31N 47°40' W 122°13'0 0.0
2014-Oct-17 00:31N 47°40' W 122°13'0 0.0
2014-Oct-16 23:32N 47°40' W 122°13'0 0.0
2014-Oct-16 22:33N 47°40' W 122°13'0 0.0
2014-Oct-16 21:48N 47°40' W 122°13'0 0.0
2014-Oct-16 21:33N 47°40' W 122°13'0 0.0
2014-Oct-16 20:25N 47°40' W 122°13'0 0.0
2014-Oct-16 19:37N 47°40' W 122°13'0 0.1
2014-Oct-16 19:32N 47°40' W 122°13'0 0.0
2014-Oct-16 19:08N 47°40' W 122°13'0 0.0
2014-Oct-16 18:32N 47°40' W 122°13'0 0.0
2014-Oct-16 18:08N 47°40' W 122°13'0 0.0
2014-Oct-16 17:33N 47°40' W 122°13'0 0.0
2014-Oct-16 16:33N 47°40' W 122°13'0 0.0
2014-Oct-16 15:31N 47°40' W 122°13'0 0.0
2014-Oct-16 14:53N 47°40' W 122°13'0 0.0
2014-Oct-16 14:32N 47°40' W 122°13'0 0.0
2014-Oct-16 14:17N 47°40' W 122°13'0 0.0
2014-Oct-16 13:33N 47°40' W 122°13'0 0.0
2014-Oct-16 12:42N 47°40' W 122°13'0 0.0
2014-Oct-16 12:33N 47°40' W 122°13'0 0.0
2014-Oct-16 12:12N 47°40' W 122°13'0 0.0
2014-Oct-16 11:31N 47°40' W 122°13'0 0.0
2014-Oct-16 11:07N 47°40' W 122°13'0 0.0
2014-Oct-16 10:32N 47°40' W 122°13'0 0.0
2014-Oct-16 09:32N 47°40' W 122°13'0 0.0
2014-Oct-16 08:33N 47°40' W 122°13'0 0.0
2014-Oct-16 07:31N 47°40' W 122°13'0 0.0
2014-Oct-16 06:46N 47°40' W 122°13'0 0.0
2014-Oct-16 06:31N 47°40' W 122°13'0 0.0
2014-Oct-16 05:32N 47°40' W 122°13'0 0.0
2014-Oct-16 04:30N 47°40' W 122°13'0 0.0
2014-Oct-16 03:33N 47°40' W 122°13'0 0.0
2014-Oct-16 02:31N 47°40' W 122°13'0 0.0
2014-Oct-16 02:31N 47°40' W 122°13'0 0.0
2014-Oct-16 01:32N 47°40' W 122°13'0 0.0
2014-Oct-16 00:32N 47°40' W 122°13'0 0.0
2014-Oct-15 23:33N 47°40' W 122°13'0 0.0
2014-Oct-15 22:31N 47°40' W 122°13'0 0.0
2014-Oct-15 21:31N 47°40' W 122°13'0 0.0
2014-Oct-15 20:17N 47°40' W 122°13'0 0.0
2014-Oct-15 19:30N 47°40' W 122°13'0 0.0
2014-Oct-15 19:00N 47°40' W 122°13'0 0.0
2014-Oct-15 18:30N 47°40' W 122°13'0 0.0
2014-Oct-15 17:28N 47°40' W 122°13'0 0.0
2014-Oct-15 16:29N 47°40' W 122°13'0 0.0
2014-Oct-15 15:50N 47°40' W 122°13'0 0.0
2014-Oct-15 15:32N 47°40' W 122°13'0 0.0
2014-Oct-15 14:33N 47°40' W 122°13'0 0.0
2014-Oct-15 13:31N 47°40' W 122°13'0 0.0
2014-Oct-15 13:19N 47°40' W 122°13'0 0.0
2014-Oct-15 12:32N 47°40' W 122°13'0 0.0
2014-Oct-15 11:59N 47°40' W 122°13'0 0.0
2014-Oct-15 11:30N 47°40' W 122°13'0 0.0
2014-Oct-15 11:24N 47°40' W 122°13'0 0.0
2014-Oct-15 10:33N 47°40' W 122°13'0 0.0
2014-Oct-15 09:28N 47°40' W 122°13'0 0.0
2014-Oct-15 08:29N 47°40' W 122°13'0 0.0
2014-Oct-15 07:29N 47°40' W 122°13'0 0.0
2014-Oct-15 06:33N 47°40' W 122°13'0 0.0
2014-Oct-15 05:31N 47°40' W 122°13'0 0.0
2014-Oct-15 04:25N 47°40' W 122°13'0 0.0
2014-Oct-15 03:32N 47°40' W 122°13'0 0.0
2014-Oct-15 02:33N 47°40' W 122°13'0 0.0
2014-Oct-15 01:30N 47°40' W 122°13'0 0.0
2014-Oct-15 00:31N 47°40' W 122°13'0 0.0
2014-Oct-14 23:32N 47°40' W 122°13'0 0.0
2014-Oct-14 22:34N 47°40' W 122°13'0 0.0
2014-Oct-14 21:34N 47°40' W 122°13'0 0.1
2014-Oct-14 20:43N 47°40' W 122°13'0 0.8
2014-Oct-14 20:34N 47°40' W 122°12'0 0.1
2014-Oct-14 19:37N 47°40' W 122°13'0 1.2
2014-Oct-14 19:33N 47°40' W 122°13'0 0.0
2014-Oct-14 18:53N 47°40' W 122°13'0 0.0
2014-Oct-14 18:32N 47°40' W 122°13'0 0.0
2014-Oct-14 17:33N 47°40' W 122°13'0 0.0
2014-Oct-14 16:28N 47°40' W 122°13'0 0.0
2014-Oct-14 15:31N 47°40' W 122°13'0 0.0
2014-Oct-14 14:32N 47°40' W 122°13'0 0.0
2014-Oct-14 13:33N 47°40' W 122°13'0 0.0
2014-Oct-14 12:33N 47°40' W 122°13'0 0.0
2014-Oct-14 11:31N 47°40' W 122°13'0 0.0
2014-Oct-14 10:26N 47°40' W 122°13'0 0.0
2014-Oct-14 09:32N 47°40' W 122°13'0 0.0
2014-Oct-14 08:33N 47°40' W 122°13'0 0.0
2014-Oct-14 07:19N 47°40' W 122°13'0 0.0
2014-Oct-14 06:31N 47°40' W 122°13'0 0.0
2014-Oct-14 05:32N 47°40' W 122°13'0 0.0
2014-Oct-14 04:27N 47°40' W 122°13'0 0.0
2014-Oct-14 03:33N 47°40' W 122°13'0 0.0
2014-Oct-14 02:28N 47°40' W 122°13'0 0.0
2014-Oct-14 01:32N 47°40' W 122°13'0 0.0
2014-Oct-14 00:29N 47°40' W 122°13'0 0.0
2014-Oct-13 23:33N 47°40' W 122°13'0 0.0
2014-Oct-13 22:22N 47°40' W 122°13'0 0.0
2014-Oct-13 22:01N 47°40' W 122°13'0 0.0
2014-Oct-13 21:31N 47°40' W 122°13'0 0.0
2014-Oct-13 20:26N 47°40' W 122°13'0 0.0
2014-Oct-13 19:33N 47°40' W 122°13'0 0.0
2014-Oct-13 18:33N 47°40' W 122°13'0 0.0
2014-Oct-13 17:31N 47°40' W 122°13'0 0.0
2014-Oct-13 16:32N 47°40' W 122°13'0 0.0
2014-Oct-13 15:59N 47°40' W 122°13'0 0.0
2014-Oct-13 15:29N 47°40' W 122°13'0 0.0
2014-Oct-13 14:33N 47°40' W 122°13'0 0.0
2014-Oct-13 13:31N 47°40' W 122°13'0 0.0
2014-Oct-13 12:31N 47°40' W 122°13'0 0.0
2014-Oct-13 11:32N 47°40' W 122°13'0 0.0
2014-Oct-13 10:30N 47°40' W 122°13'0 0.0
2014-Oct-13 10:09N 47°40' W 122°13'0 0.0
2014-Oct-13 09:33N 47°40' W 122°13'0 0.0
2014-Oct-13 08:31N 47°40' W 122°13'0 0.0
2014-Oct-13 07:32N 47°40' W 122°13'0 0.0
2014-Oct-13 06:32N 47°40' W 122°13'0 0.0
2014-Oct-13 05:30N 47°40' W 122°13'0 0.0
2014-Oct-13 04:31N 47°40' W 122°13'0 0.0
2014-Oct-13 03:31N 47°40' W 122°13'0 0.0
2014-Oct-13 02:32N 47°40' W 122°13'0 0.0
2014-Oct-13 01:33N 47°40' W 122°13'0 0.0
2014-Oct-13 00:51N 47°40' W 122°13'0 0.0
2014-Oct-13 00:33N 47°40' W 122°13'0 0.0
2014-Oct-12 23:25N 47°40' W 122°13'0 0.0
2014-Oct-12 22:26N 47°40' W 122°13'0 0.0
2014-Oct-12 21:32N 47°40' W 122°13'0 0.0
2014-Oct-12 20:30N 47°40' W 122°13'0 0.0
2014-Oct-12 19:31N 47°40' W 122°13'0 0.0
2014-Oct-12 18:31N 47°40' W 122°13'0 0.0
2014-Oct-12 17:32N 47°40' W 122°13'0 0.0
2014-Oct-12 17:32N 47°40' W 122°13'0 0.0
2014-Oct-12 16:33N 47°40' W 122°13'0 0.0
2014-Oct-12 15:57N 47°40' W 122°13'0 0.0
2014-Oct-12 15:31N 47°40' W 122°13'0 0.0
2014-Oct-12 14:25N 47°40' W 122°13'0 0.0
2014-Oct-12 13:23N 47°40' W 122°13'0 0.0
2014-Oct-12 12:32N 47°40' W 122°13'0 0.0
2014-Oct-12 11:33N 47°40' W 122°13'0 0.0
2014-Oct-12 10:25N 47°40' W 122°13'0 0.0
2014-Oct-12 09:31N 47°40' W 122°13'0 0.0
2014-Oct-12 08:44N 47°40' W 122°13'0 0.0
2014-Oct-12 08:26N 47°40' W 122°13'0 0.0
2014-Oct-12 07:33N 47°40' W 122°13'0 0.9
2014-Oct-12 07:24N 47°40' W 122°13'6 6.7
2014-Oct-12 06:33N 47°38' W 122°20'0 1.7
2014-Oct-12 06:29N 47°38' W 122°20'1 1.4
2014-Oct-12 05:59N 47°38' W 122°20'2 5.6
2014-Oct-12 05:33N 47°39' W 122°17'0 0.1
2014-Oct-12 04:33N 47°39' W 122°16'0 5.4
2014-Oct-12 04:29N 47°39' W 122°17'3 2.7
2014-Oct-12 03:33N 47°38' W 122°20'0 0.0
2014-Oct-12 03:29N 47°38' W 122°20'0 0.0
2014-Oct-12 02:23N 47°38' W 122°20'0 0.1
2014-Oct-12 01:54N 47°38' W 122°20'2 4.5
2014-Oct-12 01:31N 47°39' W 122°18'4 7.4
2014-Oct-12 00:57N 47°40' W 122°13'0 0.0
2014-Oct-12 00:33N 47°40' W 122°13'0 0.0
2014-Oct-11 23:33N 47°40' W 122°13'0 0.0
2014-Oct-11 23:25N 47°40' W 122°13'0 0.0
2014-Oct-11 22:33N 47°40' W 122°13'0 0.0
2014-Oct-11 22:30N 47°40' W 122°13'0 0.0
2014-Oct-11 21:33N 47°40' W 122°13'0 0.0
2014-Oct-11 21:20N 47°40' W 122°13'0 0.0
2014-Oct-11 20:33N 47°40' W 122°13'0 0.0
2014-Oct-11 19:33N 47°40' W 122°13'0 0.0
2014-Oct-11 18:33N 47°40' W 122°13'0 0.0
2014-Oct-11 18:24N 47°40' W 122°13'0 0.0
2014-Oct-11 17:33N 47°40' W 122°13'0 0.0
2014-Oct-11 16:33N 47°40' W 122°13'0 0.0
2014-Oct-11 15:53N 47°40' W 122°13'0 0.0
2014-Oct-11 15:33N 47°40' W 122°13'0 0.0
2014-Oct-11 14:33N 47°40' W 122°13'0 0.0
2014-Oct-11 13:33N 47°40' W 122°13'0 0.0
2014-Oct-11 12:33N 47°40' W 122°13'0 0.0
2014-Oct-11 11:33N 47°40' W 122°13'0 0.0
2014-Oct-11 10:33N 47°40' W 122°13'0 0.0
2014-Oct-11 09:37N 47°40' W 122°13'0 0.0
2014-Oct-11 09:33N 47°40' W 122°13'0 0.0
2014-Oct-11 08:33N 47°40' W 122°13'0 0.0
2014-Oct-11 07:33N 47°40' W 122°13'0 0.0
2014-Oct-11 06:33N 47°40' W 122°13'0 0.0
2014-Oct-11 05:33N 47°40' W 122°13'0 0.0
2014-Oct-11 04:33N 47°40' W 122°13'0 0.0
2014-Oct-11 03:33N 47°40' W 122°13'0 0.0
2014-Oct-11 02:33N 47°40' W 122°13'0 0.0
2014-Oct-11 01:33N 47°40' W 122°13'0 0.0
2014-Oct-11 00:33N 47°40' W 122°13'0 0.0
2014-Oct-10 23:33N 47°40' W 122°13'0 0.0
2014-Oct-10 22:52N 47°40' W 122°13'0 0.0
2014-Oct-10 22:33N 47°40' W 122°13'0 0.0
2014-Oct-10 22:26N 47°40' W 122°13'  
Track history (hours):
 
Tides and Currents Weather Stations Pressure Air Temp Water Temp Dewpoint Dewpoint Depression Visibility Wind Speed Wind Dir Waves Ship Positions

Lady Mary

Owner: BLACKMAN, JOHN H, SEATTLE, WA. More information available from US FCC via Universal Licensing System and Coast Guard Vessel Documentation Center.

Last reported at 2014-Oct-20 22:23 UTC. Time now 2014-Oct-20 22:49 UTC.
Position N 47°40' W 122°13'.

Length 26 m.

Type: Passenger vessel. MMSI: 367013060.

Date/timePositionNaut miles runAvg speedWind from/ knotsBaromVisibWave heightAir tempDewpointWater temp
2014-Oct-20 22:23N 47°40' W 122°13'0 0.0
2014-Oct-20 21:30N 47°40' W 122°13'0 0.0
2014-Oct-20 20:31N 47°40' W 122°13'0 0.0
2014-Oct-20 19:31N 47°40' W 122°13'0 0.0
2014-Oct-20 18:38N 47°40' W 122°13'0 0.1
2014-Oct-20 18:32N 47°40' W 122°13'0 0.0
2014-Oct-20 17:30N 47°40' W 122°13'0 0.0
2014-Oct-20 16:33N 47°40' W 122°13'0 0.0
2014-Oct-20 15:31N 47°40' W 122°13'0 0.0
2014-Oct-20 14:26N 47°40' W 122°13'0 0.0
2014-Oct-20 13:32N 47°40' W 122°13'0 0.0
2014-Oct-20 12:33N 47°40' W 122°13'0 0.0
2014-Oct-20 11:31N 47°40' W 122°13'0 0.0
2014-Oct-20 10:31N 47°40' W 122°13'0 0.0
2014-Oct-20 09:32N 47°40' W 122°13'0 0.0
2014-Oct-20 08:30N 47°40' W 122°13'0 0.0
2014-Oct-20 07:33N 47°40' W 122°13'0 0.0
2014-Oct-20 07:04N 47°40' W 122°13'0 0.0
2014-Oct-20 06:31N 47°40' W 122°13'0 0.0
2014-Oct-20 05:29N 47°40' W 122°13'0 0.0
2014-Oct-20 04:32N 47°40' W 122°13'0 0.0
2014-Oct-20 03:27N 47°40' W 122°13'0 0.0
2014-Oct-20 02:31N 47°40' W 122°13'0 0.0
2014-Oct-20 01:31N 47°40' W 122°13'0 0.0
2014-Oct-20 00:32N 47°40' W 122°13'0 0.0
2014-Oct-19 23:33N 47°40' W 122°13'0 0.0
2014-Oct-19 22:33N 47°40' W 122°13'0 0.0
2014-Oct-19 21:31N 47°40' W 122°13'0 0.0
2014-Oct-19 20:23N 47°40' W 122°13'0 0.0
2014-Oct-19 19:32N 47°40' W 122°13'0 0.0
2014-Oct-19 18:33N 47°40' W 122°13'0 0.0
2014-Oct-19 17:31N 47°40' W 122°13'0 0.0
2014-Oct-19 16:31N 47°40' W 122°13'0 0.0
2014-Oct-19 15:32N 47°40' W 122°13'0 0.0
2014-Oct-19 14:50N 47°40' W 122°13'0 0.0
2014-Oct-19 14:30N 47°40' W 122°13'0 0.0
2014-Oct-19 13:51N 47°40' W 122°13'0 0.0
2014-Oct-19 13:33N 47°40' W 122°13'0 0.0
2014-Oct-19 13:16N 47°40' W 122°13'0 0.0
2014-Oct-19 12:31N 47°40' W 122°13'0 0.0
2014-Oct-19 11:32N 47°40' W 122°13'0 0.0
2014-Oct-19 11:11N 47°40' W 122°13'0 0.0
2014-Oct-19 10:29N 47°40' W 122°13'0 0.0
2014-Oct-19 10:05N 47°40' W 122°13'0 0.0
2014-Oct-19 09:33N 47°40' W 122°13'0 0.1
2014-Oct-19 09:30N 47°40' W 122°13'0 0.0
2014-Oct-19 08:31N 47°40' W 122°13'0 0.6
2014-Oct-19 07:55N 47°40' W 122°13'3 7.6
2014-Oct-19 07:32N 47°39' W 122°17'0 4.0
2014-Oct-19 07:31N 47°39' W 122°17'2 2.6
2014-Oct-19 06:33N 47°39' W 122°21'0 5.6
2014-Oct-19 06:30N 47°38' W 122°20'4 4.1
2014-Oct-19 05:35N 47°39' W 122°15'0 7.0
2014-Oct-19 05:33N 47°39' W 122°15'2 1.9
2014-Oct-19 04:33N 47°40' W 122°13'0 0.0
2014-Oct-19 04:05N 47°40' W 122°13'0 0.0
2014-Oct-19 03:33N 47°40' W 122°13'0 0.0
2014-Oct-19 02:31N 47°40' W 122°13'0 0.0
2014-Oct-19 02:25N 47°40' W 122°13'0 0.0
2014-Oct-19 01:31N 47°40' W 122°13'0 0.0
2014-Oct-19 00:32N 47°40' W 122°13'0 0.0
2014-Oct-18 23:30N 47°40' W 122°13'0 0.0
2014-Oct-18 23:09N 47°40' W 122°13'0 0.0
2014-Oct-18 22:33N 47°40' W 122°13'0 0.0
2014-Oct-18 21:31N 47°40' W 122°13'0 0.0
2014-Oct-18 20:32N 47°40' W 122°13'0 0.0
2014-Oct-18 19:32N 47°40' W 122°13'0 0.0
2014-Oct-18 18:33N 47°40' W 122°13'0 0.0
2014-Oct-18 18:18N 47°40' W 122°13'0 0.0
2014-Oct-18 17:31N 47°40' W 122°13'0 0.0
2014-Oct-18 17:13N 47°40' W 122°13'0 0.0
2014-Oct-18 16:28N 47°40' W 122°13'0 0.0
2014-Oct-18 15:32N 47°40' W 122°13'0 0.0
2014-Oct-18 14:33N 47°40' W 122°13'0 0.0
2014-Oct-18 13:33N 47°40' W 122°13'0 0.0
2014-Oct-18 12:31N 47°40' W 122°13'0 0.0
2014-Oct-18 11:32N 47°40' W 122°13'0 0.0
2014-Oct-18 10:32N 47°40' W 122°13'0 0.0
2014-Oct-18 09:33N 47°40' W 122°13'0 0.0
2014-Oct-18 08:31N 47°40' W 122°13'0 0.0
2014-Oct-18 07:29N 47°40' W 122°13'0 0.0
2014-Oct-18 06:29N 47°40' W 122°13'0 0.0
2014-Oct-18 05:30N 47°40' W 122°13'0 0.0
2014-Oct-18 04:57N 47°40' W 122°13'0 0.0
2014-Oct-18 04:28N 47°40' W 122°13'0 0.0
2014-Oct-18 03:28N 47°40' W 122°13'0 0.0
2014-Oct-18 02:32N 47°40' W 122°13'0 0.0
2014-Oct-18 01:33N 47°40' W 122°13'0 0.0
2014-Oct-18 00:33N 47°40' W 122°13'0 0.0
2014-Oct-17 23:25N 47°40' W 122°13'0 0.0
2014-Oct-17 22:32N 47°40' W 122°13'0 0.0
2014-Oct-17 21:32N 47°40' W 122°13'0 0.0
2014-Oct-17 20:33N 47°40' W 122°13'0 0.0
2014-Oct-17 19:28N 47°40' W 122°13'0 0.0
2014-Oct-17 18:28N 47°40' W 122°13'0 0.0
2014-Oct-17 17:29N 47°40' W 122°13'0 0.0
2014-Oct-17 16:33N 47°40' W 122°13'0 0.0
2014-Oct-17 15:30N 47°40' W 122°13'0 0.0
2014-Oct-17 14:31N 47°40' W 122°13'0 0.0
2014-Oct-17 13:32N 47°40' W 122°13'0 0.0
2014-Oct-17 13:26N 47°40' W 122°13'0 0.0
2014-Oct-17 12:32N 47°40' W 122°13'0 0.0
2014-Oct-17 11:33N 47°40' W 122°13'0 0.0
2014-Oct-17 10:31N 47°40' W 122°13'0 0.0
2014-Oct-17 09:31N 47°40' W 122°13'0 0.0
2014-Oct-17 08:29N 47°40' W 122°13'0 0.0
2014-Oct-17 07:33N 47°40' W 122°13'0 0.0
2014-Oct-17 06:33N 47°40' W 122°13'0 0.0
2014-Oct-17 05:28N 47°40' W 122°13'0 0.0
2014-Oct-17 04:29N 47°40' W 122°13'0 0.0
2014-Oct-17 03:32N 47°40' W 122°13'0 0.0
2014-Oct-17 03:08N 47°40' W 122°13'0 0.0
2014-Oct-17 02:30N 47°40' W 122°13'0 0.0
2014-Oct-17 01:31N 47°40' W 122°13'0 0.0
2014-Oct-17 00:31N 47°40' W 122°13'0 0.0
2014-Oct-16 23:32N 47°40' W 122°13'0 0.0
2014-Oct-16 22:33N 47°40' W 122°13'0 0.0
2014-Oct-16 21:48N 47°40' W 122°13'0 0.0
2014-Oct-16 21:33N 47°40' W 122°13'0 0.0
2014-Oct-16 20:25N 47°40' W 122°13'0 0.0
2014-Oct-16 19:37N 47°40' W 122°13'0 0.1
2014-Oct-16 19:32N 47°40' W 122°13'0 0.0
2014-Oct-16 19:08N 47°40' W 122°13'0 0.0
2014-Oct-16 18:32N 47°40' W 122°13'0 0.0
2014-Oct-16 18:08N 47°40' W 122°13'0 0.0
2014-Oct-16 17:33N 47°40' W 122°13'0 0.0
2014-Oct-16 16:33N 47°40' W 122°13'0 0.0
2014-Oct-16 15:31N 47°40' W 122°13'0 0.0
2014-Oct-16 14:53N 47°40' W 122°13'0 0.0
2014-Oct-16 14:32N 47°40' W 122°13'0 0.0
2014-Oct-16 14:17N 47°40' W 122°13'0 0.0
2014-Oct-16 13:33N 47°40' W 122°13'0 0.0
2014-Oct-16 12:42N 47°40' W 122°13'0 0.0
2014-Oct-16 12:33N 47°40' W 122°13'0 0.0
2014-Oct-16 12:12N 47°40' W 122°13'0 0.0
2014-Oct-16 11:31N 47°40' W 122°13'0 0.0
2014-Oct-16 11:07N 47°40' W 122°13'0 0.0
2014-Oct-16 10:32N 47°40' W 122°13'0 0.0
2014-Oct-16 09:32N 47°40' W 122°13'0 0.0
2014-Oct-16 08:33N 47°40' W 122°13'0 0.0
2014-Oct-16 07:31N 47°40' W 122°13'0 0.0
2014-Oct-16 06:46N 47°40' W 122°13'0 0.0
2014-Oct-16 06:31N 47°40' W 122°13'0 0.0
2014-Oct-16 05:32N 47°40' W 122°13'0 0.0
2014-Oct-16 04:30N 47°40' W 122°13'0 0.0
2014-Oct-16 03:33N 47°40' W 122°13'0 0.0
2014-Oct-16 02:31N 47°40' W 122°13'0 0.0
2014-Oct-16 02:31N 47°40' W 122°13'0 0.0
2014-Oct-16 01:32N 47°40' W 122°13'0 0.0
2014-Oct-16 00:32N 47°40' W 122°13'0 0.0
2014-Oct-15 23:33N 47°40' W 122°13'0 0.0
2014-Oct-15 22:31N 47°40' W 122°13'0 0.0
2014-Oct-15 21:31N 47°40' W 122°13'0 0.0
2014-Oct-15 20:17N 47°40' W 122°13'0 0.0
2014-Oct-15 19:30N 47°40' W 122°13'0 0.0
2014-Oct-15 19:00N 47°40' W 122°13'0 0.0
2014-Oct-15 18:30N 47°40' W 122°13'0 0.0
2014-Oct-15 17:28N 47°40' W 122°13'0 0.0
2014-Oct-15 16:29N 47°40' W 122°13'0 0.0
2014-Oct-15 15:50N 47°40' W 122°13'0 0.0
2014-Oct-15 15:32N 47°40' W 122°13'0 0.0
2014-Oct-15 14:33N 47°40' W 122°13'0 0.0
2014-Oct-15 13:31N 47°40' W 122°13'0 0.0
2014-Oct-15 13:19N 47°40' W 122°13'0 0.0
2014-Oct-15 12:32N 47°40' W 122°13'0 0.0
2014-Oct-15 11:59N 47°40' W 122°13'0 0.0
2014-Oct-15 11:30N 47°40' W 122°13'0 0.0
2014-Oct-15 11:24N 47°40' W 122°13'0 0.0
2014-Oct-15 10:33N 47°40' W 122°13'0 0.0
2014-Oct-15 09:28N 47°40' W 122°13'0 0.0
2014-Oct-15 08:29N 47°40' W 122°13'0 0.0
2014-Oct-15 07:29N 47°40' W 122°13'0 0.0
2014-Oct-15 06:33N 47°40' W 122°13'0 0.0
2014-Oct-15 05:31N 47°40' W 122°13'0 0.0
2014-Oct-15 04:25N 47°40' W 122°13'0 0.0
2014-Oct-15 03:32N 47°40' W 122°13'0 0.0
2014-Oct-15 02:33N 47°40' W 122°13'0 0.0
2014-Oct-15 01:30N 47°40' W 122°13'0 0.0
2014-Oct-15 00:31N 47°40' W 122°13'0 0.0
2014-Oct-14 23:32N 47°40' W 122°13'0 0.0
2014-Oct-14 22:34N 47°40' W 122°13'0 0.0
2014-Oct-14 21:34N 47°40' W 122°13'0 0.1
2014-Oct-14 20:43N 47°40' W 122°13'0 0.8
2014-Oct-14 20:34N 47°40' W 122°12'0 0.1
2014-Oct-14 19:37N 47°40' W 122°13'0 1.2
2014-Oct-14 19:33N 47°40' W 122°13'0 0.0
2014-Oct-14 18:53N 47°40' W 122°13'0 0.0
2014-Oct-14 18:32N 47°40' W 122°13'0 0.0
2014-Oct-14 17:33N 47°40' W 122°13'0 0.0
2014-Oct-14 16:28N 47°40' W 122°13'0 0.0
2014-Oct-14 15:31N 47°40' W 122°13'0 0.0
2014-Oct-14 14:32N 47°40' W 122°13'0 0.0
2014-Oct-14 13:33N 47°40' W 122°13'0 0.0
2014-Oct-14 12:33N 47°40' W 122°13'0 0.0
2014-Oct-14 11:31N 47°40' W 122°13'0 0.0
2014-Oct-14 10:26N 47°40' W 122°13'0 0.0
2014-Oct-14 09:32N 47°40' W 122°13'0 0.0
2014-Oct-14 08:33N 47°40' W 122°13'0 0.0
2014-Oct-14 07:19N 47°40' W 122°13'0 0.0
2014-Oct-14 06:31N 47°40' W 122°13'0 0.0
2014-Oct-14 05:32N 47°40' W 122°13'0 0.0
2014-Oct-14 04:27N 47°40' W 122°13'0 0.0
2014-Oct-14 03:33N 47°40' W 122°13'0 0.0
2014-Oct-14 02:28N 47°40' W 122°13'0 0.0
2014-Oct-14 01:32N 47°40' W 122°13'0 0.0
2014-Oct-14 00:29N 47°40' W 122°13'0 0.0
2014-Oct-13 23:33N 47°40' W 122°13'0 0.0
2014-Oct-13 22:22N 47°40' W 122°13'0 0.0
2014-Oct-13 22:01N 47°40' W 122°13'0 0.0
2014-Oct-13 21:31N 47°40' W 122°13'0 0.0
2014-Oct-13 20:26N 47°40' W 122°13'0 0.0
2014-Oct-13 19:33N 47°40' W 122°13'0 0.0
2014-Oct-13 18:33N 47°40' W 122°13'0 0.0
2014-Oct-13 17:31N 47°40' W 122°13'0 0.0
2014-Oct-13 16:32N 47°40' W 122°13'0 0.0
2014-Oct-13 15:59N 47°40' W 122°13'0 0.0
2014-Oct-13 15:29N 47°40' W 122°13'0 0.0
2014-Oct-13 14:33N 47°40' W 122°13'0 0.0
2014-Oct-13 13:31N 47°40' W 122°13'0 0.0
2014-Oct-13 12:31N 47°40' W 122°13'0 0.0
2014-Oct-13 11:32N 47°40' W 122°13'0 0.0
2014-Oct-13 10:30N 47°40' W 122°13'0 0.0
2014-Oct-13 10:09N 47°40' W 122°13'0 0.0
2014-Oct-13 09:33N 47°40' W 122°13'0 0.0
2014-Oct-13 08:31N 47°40' W 122°13'0 0.0
2014-Oct-13 07:32N 47°40' W 122°13'0 0.0
2014-Oct-13 06:32N 47°40' W 122°13'0 0.0
2014-Oct-13 05:30N 47°40' W 122°13'0 0.0
2014-Oct-13 04:31N 47°40' W 122°13'0 0.0
2014-Oct-13 03:31N 47°40' W 122°13'0 0.0
2014-Oct-13 02:32N 47°40' W 122°13'0 0.0
2014-Oct-13 01:33N 47°40' W 122°13'0 0.0
2014-Oct-13 00:51N 47°40' W 122°13'0 0.0
2014-Oct-13 00:33N 47°40' W 122°13'0 0.0
2014-Oct-12 23:25N 47°40' W 122°13'0 0.0
2014-Oct-12 22:26N 47°40' W 122°13'0 0.0
2014-Oct-12 21:32N 47°40' W 122°13'0 0.0
2014-Oct-12 20:30N 47°40' W 122°13'0 0.0
2014-Oct-12 19:31N 47°40' W 122°13'0 0.0
2014-Oct-12 18:31N 47°40' W 122°13'0 0.0
2014-Oct-12 17:32N 47°40' W 122°13'0 0.0
2014-Oct-12 17:32N 47°40' W 122°13'0 0.0
2014-Oct-12 16:33N 47°40' W 122°13'0 0.0
2014-Oct-12 15:57N 47°40' W 122°13'0 0.0
2014-Oct-12 15:31N 47°40' W 122°13'0 0.0
2014-Oct-12 14:25N 47°40' W 122°13'0 0.0
2014-Oct-12 13:23N 47°40' W 122°13'0 0.0
2014-Oct-12 12:32N 47°40' W 122°13'0 0.0
2014-Oct-12 11:33N 47°40' W 122°13'0 0.0
2014-Oct-12 10:25N 47°40' W 122°13'0 0.0
2014-Oct-12 09:31N 47°40' W 122°13'0 0.0
2014-Oct-12 08:44N 47°40' W 122°13'0 0.0
2014-Oct-12 08:26N 47°40' W 122°13'0 0.0
2014-Oct-12 07:33N 47°40' W 122°13'0 0.9
2014-Oct-12 07:24N 47°40' W 122°13'6 6.7
2014-Oct-12 06:33N 47°38' W 122°20'0 1.7
2014-Oct-12 06:29N 47°38' W 122°20'1 1.4
2014-Oct-12 05:59N 47°38' W 122°20'2 5.6
2014-Oct-12 05:33N 47°39' W 122°17'0 0.1
2014-Oct-12 04:33N 47°39' W 122°16'0 5.4
2014-Oct-12 04:29N 47°39' W 122°17'3 2.7
2014-Oct-12 03:33N 47°38' W 122°20'0 0.0
2014-Oct-12 03:29N 47°38' W 122°20'0 0.0
2014-Oct-12 02:23N 47°38' W 122°20'0 0.1
2014-Oct-12 01:54N 47°38' W 122°20'2 4.5
2014-Oct-12 01:31N 47°39' W 122°18'4 7.4
2014-Oct-12 00:57N 47°40' W 122°13'0 0.0
2014-Oct-12 00:33N 47°40' W 122°13'0 0.0
2014-Oct-11 23:33N 47°40' W 122°13'0 0.0
2014-Oct-11 23:25N 47°40' W 122°13'0 0.0
2014-Oct-11 22:33N 47°40' W 122°13'0 0.0
2014-Oct-11 22:30N 47°40' W 122°13'0 0.0
2014-Oct-11 21:33N 47°40' W 122°13'0 0.0
2014-Oct-11 21:20N 47°40' W 122°13'0 0.0
2014-Oct-11 20:33N 47°40' W 122°13'0 0.0
2014-Oct-11 19:33N 47°40' W 122°13'0 0.0
2014-Oct-11 18:33N 47°40' W 122°13'0 0.0
2014-Oct-11 18:24N 47°40' W 122°13'0 0.0
2014-Oct-11 17:33N 47°40' W 122°13'0 0.0
2014-Oct-11 16:33N 47°40' W 122°13'0 0.0
2014-Oct-11 15:53N 47°40' W 122°13'0 0.0
2014-Oct-11 15:33N 47°40' W 122°13'0 0.0
2014-Oct-11 14:33N 47°40' W 122°13'0 0.0
2014-Oct-11 13:33N 47°40' W 122°13'0 0.0
2014-Oct-11 12:33N 47°40' W 122°13'0 0.0
2014-Oct-11 11:33N 47°40' W 122°13'0 0.0
2014-Oct-11 10:33N 47°40' W 122°13'0 0.0
2014-Oct-11 09:37N 47°40' W 122°13'0 0.0
2014-Oct-11 09:33N 47°40' W 122°13'0 0.0
2014-Oct-11 08:33N 47°40' W 122°13'0 0.0
2014-Oct-11 07:33N 47°40' W 122°13'0 0.0
2014-Oct-11 06:33N 47°40' W 122°13'0 0.0
2014-Oct-11 05:33N 47°40' W 122°13'0 0.0
2014-Oct-11 04:33N 47°40' W 122°13'0 0.0
2014-Oct-11 03:33N 47°40' W 122°13'0 0.0
2014-Oct-11 02:33N 47°40' W 122°13'0 0.0
2014-Oct-11 01:33N 47°40' W 122°13'0 0.0
2014-Oct-11 00:33N 47°40' W 122°13'0 0.0
2014-Oct-10 23:33N 47°40' W 122°13'0 0.0
2014-Oct-10 22:52N 47°40' W 122°13'0 0.0
2014-Oct-10 22:33N 47°40' W 122°13'0 0.0
2014-Oct-10 22:26N 47°40' W 122°13'  

Dump ship's entire track history